Weather observations for the past three days for
Bowie Municipal Airport
Metric (Imperial)
Date Time (cdt) Wind (kph) Vis. (km) Weather Sky Cond. Temperature (ºC) Relative Humidity Wind Chill (°C) Heat Index (°C) Pressure Precipitation (cm)
Air Dwpt 6 hour altimeter (cm) sea level (mb) 1 hr 3 hr 6 hr
Max. Min.
04 04:35 S 9 16.09 Fair CLR 13.9 9.2 74% 75.9 0.0
04 04:15 S 7 16.09 Fair CLR 13.8 9.3 74% 75.92 0.0
04 03:55 S 9 16.09 Fair CLR 14.1 9.2 73% 75.95 0.0
04 03:35 S 9 16.09 Fair CLR 14.1 9.2 73% 75.95 0.0
04 03:15 S 9 16.09 Fair CLR 14.2 9.2 72% 75.95 0.0
04 02:55 S 11 16.09 Fair CLR 14.5 9.1 70% 75.97 0.0
04 02:35 S 11 16.09 Fair CLR 14.4 9 70% 76 0.0
04 02:15 S 11 16.09 Fair CLR 14.7 9.1 69% 76.02 0.0
04 01:55 S 13 16.09 Fair CLR 15.1 9 67% 76.05 0.0
04 01:35 S 13 16.09 Fair CLR 15.1 9 67% 76.07 0.0
04 01:15 S 13 16.09 Fair CLR 15.4 9 66% 76.07 0.0
04 00:55 S 13 16.09 Fair CLR 15.8 8.9 25 15.7 64% 76.1 0.0
04 00:35 S 13 16.09 Fair CLR 16 8.9 63% 76.12 0.0
04 00:15 S 15 16.09 Fair CLR 16.1 8.8 62% 76.12 0.0
03 23:55 S 11 16.09 Fair CLR 16.2 8.8 62% 76.12 0.0
03 23:35 S 11 16.09 Fair CLR 16.3 8.9 62% 76.15 0.0
03 23:15 S 9 16.09 Fair CLR 16.2 9 63% 76.17 0.0
03 22:55 S 7 16.09 Fair CLR 16.3 8.7 61% 76.17 0.0
03 22:35 S 7 16.09 Fair CLR 16.4 8.7 61% 76.17 0.0
03 22:15 S 6 16.09 Fair CLR 16.9 8.6 58% 76.15 0.0
03 21:55 S 6 16.09 Fair CLR 17.8 8.5 55% 76.15 0.0
03 21:35 S 7 16.09 Fair CLR 18 8.5 54% 76.15 0.0
03 21:15 S 6 16.09 Fair CLR 18.7 8.9 53% 76.12 0.0
03 20:55 S 6 16.09 Fair CLR 19.2 8.5 50% 76.12 0.0
03 20:35 S 6 16.09 Fair CLR 20.4 8 45% 76.12 0.0
03 20:15 S 6 16.09 Fair CLR 20.6 8.2 45% 76.12 0.0
03 19:55 S 7 16.09 Fair CLR 21.8 7.5 40% 76.12 0.0
03 19:35 S 15 16.09 Fair CLR 23.3 6.6 34% 76.12 0.0
03 19:15 S 17 16.09 Fair CLR 24.5 7 33% 25 76.15 0.0
03 18:55 SW 19 G 26 16.09 Fair CLR 25 5.9 26.7 24.7 29% 25 76.15 0.0
03 18:35 S 19 G 28 16.09 Fair CLR 24.8 6.3 31% 25 76.15 0.0
03 18:15 S 19 G 30 16.09 Fair CLR 25.5 5.7 28% 26 76.17 0.0
03 17:55 S 22 G 31 16.09 Fair CLR 25.9 6.2 28% 26 76.17 0.0
03 17:35 S 15 G 39 16.09 Fair CLR 26.2 7.4 30% 26 76.17 0.0
03 17:15 SW 17 G 33 16.09 Fair CLR 26.3 6.3 28% 26 76.2 0.0
03 16:55 S 19 G 31 16.09 Fair CLR 26.4 6.1 27% 26 76.2 0.0
03 16:35 S 19 G 26 16.09 Fair CLR 26.5 7.2 29% 26 76.23 0.0
03 16:15 S 22 G 31 16.09 Fair CLR 26.4 6.8 29% 26 76.25 0.0
03 15:55 SW 15 G 28 16.09 Fair CLR 26.5 8.3 32% 26 76.28 0.0
03 15:35 SW 19 G 33 16.09 Partly Cloudy SCT085 26.4 7.7 31% 26 76.33 0.0
03 15:15 SW 19 G 26 16.09 Fair CLR 26.1 8 32% 26 76.33 0.0
03 14:55 S 17 G 30 16.09 Fair CLR 26.1 7.9 32% 26 76.35 0.0
03 14:35 SW 19 G 26 16.09 Fair CLR 25.8 7.1 30% 26 76.38 0.0
03 14:15 S 20 G 31 16.09 Fair CLR 26.1 7.9 32% 26 76.4 0.0
03 13:55 SW 19 G 28 16.09 Partly Cloudy SCT075 25.7 7.3 31% 26 76.43 0.0
03 13:35 W 9 G 28 16.09 Partly Cloudy SCT075 24.9 8 34% 25 76.45 0.0
03 13:15 SW 22 G 30 16.09 Fair CLR 25.4 9.6 37% 26 76.48 0.0
03 12:55 SW 9 G 28 16.09 Fair CLR 25 9.4 25.1 9.6 37% 26 76.5 0.0
03 12:35 SW 19 G 26 16.09 Fair CLR 24.5 10 40% 25 76.53 0.0
03 12:15 SW 15 16.09 Fair CLR 24.3 10.4 42% 25 76.56 0.0
03 11:55 W 13 G 26 16.09 Fair CLR 24 10 41% 25 76.56 0.0
03 11:35 SW 19 G 30 16.09 Fair CLR 23.6 9.9 42% 76.58 0.0
03 11:15 W 17 16.09 Fair CLR 23.4 10.3 44% 76.58 0.0
03 10:55 W 11 16.09 Fair CLR 22.6 10.4 46% 76.58 0.0
03 10:35 W 19 G 26 16.09 Fair CLR 21.8 10.2 48% 76.58 0.0
03 10:15 W 15 G 26 16.09 Fair CLR 21.2 9.7 48% 76.58 0.0
03 09:55 W 11 16.09 Fair CLR 20.2 10.1 52% 76.58 0.0
03 09:35 SW 13 16.09 Fair CLR 18.7 10.7 60% 76.58 0.0
03 09:15 SW 11 16.09 Fair CLR 17.3 10.6 65% 76.56 0.0
03 08:55 SW 7 16.09 Fair CLR 15.7 11 74% 76.56 0.0
03 08:35 Calm 16.09 Fair CLR 14.2 11 81% 76.56 0.0
03 08:15 S 6 16.09 Fair CLR 12.8 10.1 84% 76.56 0.0
03 07:55 S 6 16.09 Fair CLR 11.9 9.5 85% 76.56 0.0
03 07:35 Calm 16.09 Fair CLR 10.8 8.8 88% 76.53 0.0
03 07:15 Calm 16.09 Fair CLR 10 8.5 91% 76.5 0.0
03 06:55 Calm 16.09 Fair CLR 9.7 8.3 12.4 9.2 91% 76.5 0.0
03 06:35 S 6 16.09 Fair CLR 9.6 8.3 92% 76.48 0.0
03 06:15 S 6 16.09 Fair CLR 9.3 8.4 94% 76.48 0.0
03 05:55 S 6 16.09 Fair CLR 9.5 8.6 94% 76.48 0.0
03 05:35 Calm 16.09 Fair CLR 10.1 8.7 91% 76.48 0.0
03 05:15 Calm 16.09 Fair CLR 10.1 8.7 91% 76.48 0.0
03 04:55 Calm 16.09 Fair CLR 10.5 9 91% 76.48 0.0
03 04:35 Calm 16.09 Fair CLR 10.5 9.2 92% 76.48 0.0
03 04:15 Calm 16.09 Fair CLR 10.3 9.1 92% 76.48 0.0
03 03:55 Calm 16.09 Fair CLR 10.6 9.1 91% 76.48 0.0
03 03:35 Calm 16.09 Fair CLR 11 9.5 91% 76.48 0.0
03 03:15 Calm 16.09 Fair CLR 10.9 9.5 91% 76.48 0.0
03 02:55 Calm 16.09 Fair CLR 11 9.6 91% 76.5 0.0
03 02:35 Calm 16.09 Fair CLR 11 9.6 91% 76.5 0.0
03 02:15 Calm 16.09 Fair CLR 11.2 9.5 89% 76.5 0.0
03 01:55 Calm 16.09 Fair CLR 11.8 9.5 86% 76.5 0.0
03 01:35 Calm 16.09 Fair CLR 11.2 9.8 91% 76.5 0.0
03 01:15 Calm 16.09 Fair CLR 12.1 9.7 85% 76.5 0.0
03 00:55 Calm 16.09 Fair CLR 12.2 9.6 23.1 12.2 84% 76.5 0.0
03 00:35 Calm 16.09 Fair CLR 12.6 9.5 82% 76.5 0.0
03 00:15 Calm 16.09 Fair CLR 12.9 9.7 81% 76.48 0.0
02 23:55 Calm 16.09 Fair CLR 13.4 9.6 78% 76.48 0.0
02 23:35 Calm 16.09 Fair CLR 13.7 9.5 76% 76.48 0.0
02 23:15 Calm 16.09 Fair CLR 14.3 9.7 74% 76.48 0.0
02 22:55 Calm 16.09 Fair CLR 14.6 9.5 72% 76.48 0.0
02 22:35 S 6 16.09 Fair CLR 15.2 9.2 68% 76.48 0.0
02 22:15 S 6 16.09 Fair CLR 14.6 9.6 72% 76.45 0.0
02 21:55 S 6 16.09 Fair CLR 14.8 10 73% 76.45 0.0
02 21:35 Calm 16.09 Fair CLR 15.6 10.1 70% 76.43 0.0
02 21:15 Calm 16.09 Fair CLR 16.3 10 66% 76.43 0.0
02 20:55 Calm 16.09 Fair CLR 16.8 11 69% 76.43 0.0
02 20:35 SW 6 16.09 Fair CLR 17.9 9.7 59% 76.4 0.0
02 20:15 Calm 16.09 Fair CLR 19.5 9.2 52% 76.4 0.0
02 19:55 Calm 16.09 Fair CLR 21.5 7.4 40% 76.4 0.0
02 19:35 Calm 16.09 Fair CLR 22.2 7.6 39% 76.4 0.0
02 19:15 Calm 16.09 Fair CLR 22.9 6.7 35% 76.4 0.0
02 18:55 W 6 16.09 Fair CLR 23.1 5.8 23.9 21.2 33% 76.4 0.0
02 18:35 W 6 16.09 Fair CLR 23.2 5.5 32% 76.43 0.0
02 18:15 W 7 16.09 Fair CLR 23.6 5.8 32% 76.43 0.0
02 17:55 NW 9 16.09 Partly Cloudy SCT090 23.6 5.5 31% 76.43 0.0
02 17:35 Calm 16.09 Partly Cloudy SCT100 22.8 5.1 32% 76.45 0.0
02 17:15 SW 9 16.09 Fair CLR 23.6 6.1 32% 76.45 0.0
02 16:55 W 9 16.09 Fair CLR 23.6 6.2 33% 76.48 0.0
02 16:35 W 11 16.09 Fair CLR 23.6 7.7 36% 76.5 0.0
02 16:15 W 9 16.09 Fair CLR 23.4 8 37% 76.5 0.0
02 15:55 SW 9 16.09 Fair CLR 23.5 8.5 38% 76.53 0.0
02 15:35 W 7 16.09 Fair CLR 23.1 8 38% 76.56 0.0
02 15:15 W 11 16.09 Partly Cloudy SCT065 22.8 7.8 38% 76.56 0.0
02 14:55 W 11 16.09 Fair CLR 23 7.5 37% 76.58 0.0
02 14:35 N 6 16.09 Fair CLR 22.6 6.6 36% 76.58 0.0
02 14:15 W 9 16.09 Partly Cloudy SCT060 21.8 7.1 39% 76.58 0.0
02 13:55 W 9 16.09 Partly Cloudy SCT060 SCT070 22.2 8.2 41% 76.61 0.0
02 13:35 W 11 16.09 Partly Cloudy SCT070 21.7 8.4 43% 76.63 0.0
02 13:15 NW 7 16.09 Fair CLR 21.4 8.3 43% 76.66 0.0
02 12:55 W 11 16.09 Fair CLR 21.2 7.7 21.4 7.3 42% 76.68 0.0
02 12:35 N 7 16.09 Fair CLR 20.9 7.8 43% 76.68 0.0
02 12:15 W 6 16.09 Fair CLR 20.5 7.8 44% 76.71 0.0
02 11:55 NW 7 16.09 Fair CLR 20.2 8 46% 76.71 0.0
02 11:35 W 9 16.09 Fair CLR 19.8 8 47% 76.71 0.0
02 11:15 Calm 16.09 Fair CLR 19.5 8.4 49% 76.71 0.0
02 10:55 NW 7 16.09 Fair CLR 19 7.4 47% 76.71 0.0
02 10:35 W 6 16.09 Fair CLR 18.8 8.1 50% 76.71 0.0
02 10:15 Calm 16.09 Fair CLR 18 8.1 53% 76.68 0.0
02 09:55 Calm 16.09 Fair CLR 17.4 7.5 52% 76.68 0.0
02 09:35 NW 7 16.09 Fair CLR 16.6 9.2 62% 76.68 0.0
02 09:15 W 7 16.09 Fair CLR 16.1 10.2 68% 76.68 0.0
02 08:55 NW 6 16.09 Fair CLR 15.2 9.7 70% 76.68 0.0
02 08:35 Calm 16.09 Fair CLR 14.1 9.9 76% 76.66 0.0
02 08:15 Calm 16.09 Fair CLR 12.7 10.1 84% 76.66 0.0
02 07:55 Calm 16.09 Fair CLR 10.5 9 91% 76.63 0.0
02 07:35 Calm 16.09 Fair CLR 8.8 7.9 94% 76.61 0.0
02 07:15 Calm 16.09 Fair CLR 7.7 7 95% 76.58 0.0
02 06:55 Calm 16.09 Fair CLR 7.7 6.9 10.5 7.2 95% 76.56 0.0
02 06:35 Calm 16.09 Fair CLR 7.6 7 96% 76.56 0.0
02 06:15 Calm 16.09 Fair CLR 7.5 6.8 95% 76.53 0.0
02 05:55 Calm 16.09 Fair CLR 7.2 6.8 97% 76.53 0.0
02 05:35 Calm 16.09 Fair CLR 7.3 6.8 97% 76.5 0.0
02 05:15 Calm 16.09 Fair CLR 7.3 6.9 97% 76.5 0.0
02 04:55 Calm 16.09 Fair CLR 7.9 7.2 95% 76.48 0.0
02 04:35 Calm 16.09 Fair CLR 8.1 7.1 93% 76.48 0.0
02 04:15 Calm 16.09 Fair CLR 8.7 7.7 94% 76.48 0.0
02 03:55 Calm 16.09 Fair CLR 8.2 7.6 96% 76.48 0.0
02 03:35 Calm 16.09 Fair CLR 8.3 7.6 95% 76.48 0.0
02 03:15 Calm 16.09 Fair CLR 8.6 7.9 95% 76.48 0.0
02 02:55 Calm 16.09 Fair CLR 8.6 7.7 94% 76.48 0.0
02 02:35 Calm 16.09 Fair CLR 9.1 8.3 95% 76.48 0.0
02 02:15 Calm 16.09 Fair CLR 9.1 8.5 96% 76.5 0.0
02 01:55 Calm 16.09 Fair CLR 9.4 8.5 94% 76.5 0.0
02 01:35 Calm 16.09 Fair CLR 9.7 8.8 94% 76.5 0.0
02 01:15 Calm 16.09 Fair CLR 9.9 8.7 92% 76.5 0.0
02 00:55 Calm 16.09 Fair CLR 10.1 9.1 17.3 10.1 94% 76.48 0.0
02 00:35 Calm 16.09 Fair CLR 10.6 9.2 91% 76.48 0.0
02 00:15 Calm 16.09 Fair CLR 11.4 9.6 89% 76.48 0.0
01 23:55 Calm 16.09 Fair CLR 11.7 9.2 85% 76.48 0.0
01 23:35 Calm 16.09 Fair CLR 12.6 9.3 81% 76.45 0.0
01 23:15 Calm 16.09 Fair CLR 12.8 9.7 82% 76.45 0.0
01 22:55 SE 6 16.09 Partly Cloudy SCT070 13.6 10.1 80% 76.45 0.0
01 22:35 Calm 16.09 Overcast OVC070 13.9 10.6 81% 76.45 0.0
01 22:15 Calm 16.09 Mostly Cloudy BKN070 14.4 11 80% 76.45 0.0
01 21:55 Calm 16.09 Partly Cloudy SCT070 14.9 11.1 78% 76.43 0.0
01 21:35 Calm 16.09 Mostly Cloudy SCT060 BKN070 15.7 11.3 75% 76.4 0.0
01 21:15 Calm 16.09 Overcast BKN060 OVC070 16.3 11.4 73% 76.38 0.0
01 20:55 Calm 16.09 Overcast SCT060 OVC070 16 11.7 76% 76.35 0.0
01 20:35 Calm 16.09 Mostly Cloudy BKN065 15.6 12.4 81% 76.33 0.0
01 20:15 Calm 16.09 Partly Cloudy SCT065 16.1 11.5 74% 76.3 0.0
01 19:55 Calm 16.09 Partly Cloudy SCT060 SCT075 16.5 11.8 74% 76.28 0.0
01 19:35 Calm 16.09 Overcast SCT060 OVC075 16.8 11.7 72% 76.25 0.0
01 19:15 Calm 16.09 Mostly Cloudy SCT060 BKN075 17 11.9 72% 76.25 0.0
01 18:55 S 6 16.09 Fair CLR 17.4 11.1 19 17.3 67% 76.23 0.0
01 18:35 Calm 16.09 Fair CLR 18.3 9.8 58% 76.2 0.0
01 18:15 Calm 16.09 Partly Cloudy SCT060 18.4 8.5 53% 76.2 0.0
01 17:55 Calm 16.09 Partly Cloudy SCT060 18.5 8.8 53% 76.2 0.0
01 17:35 E 6 16.09 Fair CLR 18.5 8.7 53% 76.2 0.0
01 17:15 E 9 16.09 Partly Cloudy SCT047 18.7 8.7 52% 76.2 0.0
01 16:55 E 7 16.09 Fair CLR 18.8 8.6 52% 76.2 0.0
01 16:35 E 7 16.09 Fair CLR 19 8.7 51% 76.23 0.0
01 16:15 NE 6 16.09 Partly Cloudy SCT120 18.2 9.2 56% 76.25 0.0
01 15:55 NE 7 16.09 Mostly Cloudy SCT045 BKN110 18 8.8 55% 76.25 0.0
01 15:35 NE 6 16.09 Mostly Cloudy SCT047 BKN100 17.9 9 56% 76.28 0.0
01 15:15 NE 7 16.09 Mostly Cloudy SCT045 BKN100 18.2 8.6 54% 76.28 0.0
01 14:55 E 11 16.09 Partly Cloudy SCT045 SCT110 18.7 8.3 51% 76.28 0.0
01 14:35 E 17 G 30 16.09 Mostly Cloudy SCT040 SCT046 BKN095 18.5 8.4 52% 76.3 0.0
01 14:15 E 11 16.09 Mostly Cloudy SCT040 BKN095 18.5 8.7 53% 76.3 0.0
01 13:55 E 20 G 28 16.09 Partly Cloudy SCT095 18.7 9.1 54% 76.28 0.0
01 13:35 E 19 G 30 16.09 Partly Cloudy SCT036 SCT095 18 8.5 54% 76.3 0.0
01 13:15 E 13 G 26 16.09 Partly Cloudy SCT034 17.3 8.8 58% 76.33 0.0
01 12:55 E 19 G 26 16.09 Partly Cloudy SCT034 17.5 9.1 17.8 12.3 58% 76.3 0.0
01 12:35 E 13 16.09 Mostly Cloudy BKN034 16.9 9.6 62% 76.35 0.0
01 12:15 E 11 16.09 Mostly Cloudy SCT032 BKN100 16.6 9.9 65% 76.38 0.0
01 11:55 E 11 16.09 Partly Cloudy SCT100 16.2 9.4 64% 76.4 0.0
01 11:35 E 11 16.09 Partly Cloudy SCT100 16.4 10 66% 76.38 0.0
01 11:15 E 17 16.09 Partly Cloudy SCT095 16.1 10.7 71% 76.35 0.0
01 10:55 E 9 16.09 Mostly Cloudy BKN095 15.8 11.3 75% 76.35 0.0
01 10:35 E 6 16.09 Mostly Cloudy BKN095 15 11.4 79% 76.38 0.0
01 10:15 E 7 16.09 Partly Cloudy SCT095 14.3 11.5 83% 76.35 0.0
01 09:55 NE 6 16.09 Partly Cloudy SCT095 13.7 12 90% 76.33 0.0
01 09:35 Calm 16.09 Partly Cloudy SCT095 SCT120 13.2 11.9 92% 76.38 0.0
01 09:15 NE 6 16.09 Fair CLR 13 11.9 93% 76.3 0.0
01 08:55 Calm 16.09 Fair CLR 13 12 94% 76.33 0.0
01 08:35 E 6 16.09 Fair CLR 12.8 12 95% 76.33 0.0
01 08:15 NE 6 16.09 Partly Cloudy SCT085 12.6 11.9 96% 76.28 0.0
01 07:55 Calm 16.09 Fair CLR 12.5 11.8 96% 76.3 0.0
01 07:35 Calm 16.09 Fair CLR 12.5 11.9 96% 76.3 0.0
01 07:15 N 9 16.09 Fair CLR 12.3 11.8 97% 76.28 0.0
01 06:55 N 6 16.09 Partly Cloudy SCT090 12.5 12 14.5 12.5 97% 76.25 0.0
01 06:35 N 7 16.09 Partly Cloudy SCT090 12.5 12 97% 76.25 0.0
01 06:15 N 7 16.09 Fair CLR 12.6 12.1 97% 76.25 0.0
01 05:55 N 6 16.09 Partly Cloudy SCT060 SCT095 12.6 12 96% 76.25 0.0
01 05:35 N 6 16.09 Partly Cloudy SCT060 SCT095 13 12.1 94% 76.28 0.0
01 05:15 Calm 16.09 Partly Cloudy SCT050 SCT075 SCT095 13.2 12.2 94% 76.28 0.0
01 04:55 Calm 16.09 Overcast SCT039 OVC049 13.5 12.4 93% 76.25 0.0
Date Time (cdt) Wind (kph) Vis. (km) Weather Sky Cond. Air Dwpt Max. Min. Relative Humidity Wind Chill (°C) Heat Index (°C) altimeter (cm) sea level (mb) 1 hr 3 hr 6 hr
6 hour
Temperature (ºC) Pressure Precipitation (cm)